Terminal Aerodrome Forecast
Issued by NWS

Home | Current Version | Previous Version | Text Only | Print | Product List | Glossary Off
Versions: 1 2 3 4 5 6 7 8 9 10 11 12 13 14 15 16 17 18 19 20 21 22 23 24

000
FTUS43 KTOP 212200 AAB
TAFMHK
TAF AMD
KMHK 212245Z 2123/2218 14004KT 1SM -DZ BR OVC003
      TEMPO 2123/2203 1/4SM -DZ FG OVC002
     FM221600 21007KT 3SM BR BKN030=

USA.gov is the U.S. government's official web portal to all federal, state and local government web resources and services.